Time;durP1;ratioP1;P1;durP2;ratioP2;P2;SDS_P1;SDS_P2;PMS_P1;PMS_P2;Temp;Humidity;BMP_temperature;BMP_pressure;BME280_temperature;BME280_humidity;BME280_pressure;Samples;Min_cycle;Max_cycle;Signal;HPM_P1;HPM_P2
2021/12/11 00:00:30;;;;;;;42.53;27.25;;;-1.60;99.90;;;;;;4990862;28;20034;-60
2021/12/11 00:03:08;;;;;;;43.72;27.75;;;-1.60;99.90;;;;;;4989967;28;20145;-60
2021/12/11 00:05:36;;;;;;;43.38;28.35;;;-1.50;99.90;;;;;;4972701;28;20054;-60
2021/12/11 00:08:05;;;;;;;44.78;27.65;;;-1.60;99.90;;;;;;4958878;28;20042;-60
2021/12/11 00:10:42;;;;;;;41.90;26.05;;;-1.60;99.90;;;;;;4991970;28;20050;-60
2021/12/11 00:13:13;;;;;;;42.55;28.90;;;-1.60;99.90;;;;;;5010071;28;20045;-60
2021/12/11 00:15:44;;;;;;;41.97;27.67;;;-1.60;99.90;;;;;;4975309;28;20050;-60
2021/12/11 00:18:15;;;;;;;;;;;-1.60;99.90;;;;;;5000521;28;20097;-60
2021/12/11 00:20:49;;;;;;;41.55;26.75;;;-1.60;99.90;;;;;;4972010;28;20383;-60
2021/12/11 00:23:22;;;;;;;36.03;26.33;;;-1.60;99.90;;;;;;4939878;28;21758;-60
2021/12/11 00:25:48;;;;;;;42.47;28.35;;;-1.60;99.90;;;;;;4973918;28;20055;-60
2021/12/11 00:28:14;;;;;;;37.30;27.52;;;-1.70;99.90;;;;;;4989194;28;20387;-60
2021/12/11 00:30:44;;;;;;;38.92;28.00;;;-1.70;99.90;;;;;;4987433;28;20038;-60
2021/12/11 00:33:26;;;;;;;39.65;28.13;;;-1.70;99.90;;;;;;4971157;28;20101;-60
2021/12/11 00:35:54;;;;;;;43.38;28.25;;;-1.70;99.90;;;;;;4974747;28;20053;-60
2021/12/11 00:38:24;;;;;;;36.22;27.55;;;-1.70;99.90;;;;;;4963874;28;20042;-61
2021/12/11 00:40:51;;;;;;;39.83;29.27;;;-1.70;99.90;;;;;;4970232;28;20378;-60
2021/12/11 00:43:23;;;;;;;41.85;29.20;;;-1.70;99.90;;;;;;4971867;28;20046;-60
2021/12/11 00:45:50;;;;;;;40.92;28.13;;;-1.70;99.90;;;;;;4956842;28;20129;-45
2021/12/11 00:48:20;;;;;;;39.42;28.33;;;-1.70;99.90;;;;;;4955361;28;20081;-47
2021/12/11 00:50:57;;;;;;;34.83;24.90;;;-1.70;99.90;;;;;;4971977;28;20112;-50
2021/12/11 00:53:28;;;;;;;37.58;27.35;;;-1.80;99.90;;;;;;4989988;28;20054;-45
2021/12/11 00:56:02;;;;;;;36.70;25.88;;;-1.70;99.90;;;;;;4972472;28;20121;-46
2021/12/11 00:58:32;;;;;;;33.30;24.45;;;-1.70;99.90;;;;;;4972631;28;20453;-46
2021/12/11 01:01:15;;;;;;;38.72;28.02;;;-1.80;99.90;;;;;;4972331;28;20085;-45
2021/12/11 01:04:10;;;;;;;38.55;27.33;;;-1.70;99.90;;;;;;4971859;28;20490;-48
2021/12/11 01:07:08;;;;;;;39.65;28.02;;;-1.70;99.90;;;;;;4989813;28;20100;-45
2021/12/11 01:09:42;;;;;;;43.72;28.80;;;-1.80;99.90;;;;;;4990007;28;20524;-44
2021/12/11 01:12:19;;;;;;;40.57;27.93;;;-1.80;99.90;;;;;;4956402;28;20046;-45
2021/12/11 01:15:13;;;;;;;34.08;25.48;;;-1.80;99.90;;;;;;4989737;28;20803;-44
2021/12/11 01:18:21;;;;;;;38.40;27.33;;;-1.80;99.90;;;;;;4990915;28;20062;-46
2021/12/11 01:21:13;;;;;;;34.15;26.27;;;-1.80;99.90;;;;;;4959870;28;20054;-45
2021/12/11 01:26:13;;;;;;;37.45;27.13;;;-1.80;99.90;;;;;;4959684;28;20051;-45
2021/12/11 01:28:39;;;;;;;39.28;24.33;;;-1.80;99.90;;;;;;4981752;28;20042;-46
2021/12/11 01:31:09;;;;;;;36.47;24.83;;;-1.90;99.90;;;;;;4994029;28;20401;-45
2021/12/11 01:33:37;;;;;;;34.58;25.08;;;-1.90;99.90;;;;;;4976005;28;20050;-45
2021/12/11 01:36:05;;;;;;;35.97;25.58;;;-1.90;99.90;;;;;;4976051;28;20078;-47
2021/12/11 01:38:33;;;;;;;39.13;26.23;;;-1.80;99.90;;;;;;4975862;28;20082;-45
2021/12/11 01:41:20;;;;;;;34.92;26.25;;;-1.90;99.90;;;;;;4959368;28;20069;-45
2021/12/11 01:43:51;;;;;;;37.38;23.75;;;-1.90;99.90;;;;;;4959237;28;20053;-46
2021/12/11 01:46:23;;;;;;;32.90;24.77;;;-1.90;99.90;;;;;;4975473;28;20125;-60
2021/12/11 01:48:56;;;;;;;33.10;24.75;;;-1.90;99.90;;;;;;4993419;28;20046;-59
2021/12/11 01:51:32;;;;;;;35.47;23.25;;;-2.00;99.90;;;;;;4974616;28;20065;-60
2021/12/11 01:54:12;;;;;;;36.15;24.55;;;-2.00;99.90;;;;;;4974071;28;20049;-49
2021/12/11 01:56:42;;;;;;;33.03;24.42;;;-2.00;99.90;;;;;;4991121;28;20125;-45
2021/12/11 01:59:17;;;;;;;34.30;24.67;;;-2.00;99.90;;;;;;4977837;28;20061;-59
2021/12/11 02:01:51;;;;;;;35.75;25.67;;;-2.00;99.90;;;;;;4959216;28;20100;-46
2021/12/11 02:04:20;;;;;;;33.13;24.70;;;-2.00;99.90;;;;;;4975758;28;20050;-49
2021/12/11 02:06:49;;;;;;;34.53;25.20;;;-2.00;99.90;;;;;;4992546;28;20238;-60
2021/12/11 02:09:25;;;;;;;32.00;23.58;;;-2.00;99.90;;;;;;4959188;28;20061;-59
2021/12/11 02:12:06;;;;;;;29.15;22.25;;;-2.10;99.90;;;;;;4992669;28;20047;-59
2021/12/11 02:14:38;;;;;;;33.00;23.50;;;-2.10;99.90;;;;;;4992442;28;20058;-58
2021/12/11 02:17:05;;;;;;;29.90;23.33;;;-2.10;99.90;;;;;;4974710;28;20050;-60
2021/12/11 02:19:36;;;;;;;35.25;23.67;;;-2.10;99.90;;;;;;5011047;28;20436;-59
2021/12/11 02:22:02;;;;;;;35.70;24.60;;;-2.10;99.90;;;;;;4994233;28;20057;-59
2021/12/11 02:24:58;;;;;;;31.42;22.23;;;-2.10;99.90;;;;;;4994364;28;20367;-60
2021/12/11 02:27:29;;;;;;;33.92;22.48;;;-2.10;99.90;;;;;;4992932;28;20049;-46
2021/12/11 02:30:26;;;;;;;30.15;21.95;;;-2.10;99.90;;;;;;4993215;28;20050;-60
2021/12/11 02:33:22;;;;;;;29.90;22.73;;;-2.10;99.90;;;;;;4994428;28;20137;-59
2021/12/11 02:35:55;;;;;;;28.70;22.33;;;-2.20;99.90;;;;;;4994214;28;20128;-58
2021/12/11 02:38:31;;;;;;;34.53;24.73;;;-2.10;99.90;;;;;;4974899;28;20050;-59
2021/12/11 02:41:08;;;;;;;30.02;22.38;;;-2.20;99.90;;;;;;4994059;28;20038;-59
2021/12/11 02:43:43;;;;;;;30.52;20.67;;;-2.20;99.90;;;;;;4994288;28;20140;-60
2021/12/11 02:46:19;;;;;;;29.27;20.58;;;-2.20;99.90;;;;;;5011824;28;20511;-59
2021/12/11 02:48:55;;;;;;;34.17;22.67;;;-2.20;99.90;;;;;;5012347;28;20041;-59
2021/12/11 02:51:39;;;;;;;29.02;20.58;;;-2.20;99.90;;;;;;4994604;28;20049;-59
2021/12/11 02:54:17;;;;;;;25.90;18.75;;;-2.20;99.90;;;;;;4994327;28;20058;-58
2021/12/11 02:56:49;;;;;;;28.73;19.55;;;-2.30;99.90;;;;;;4977787;28;20516;-59
2021/12/11 02:59:21;;;;;;;28.58;19.33;;;-2.20;99.90;;;;;;4992466;28;20041;-59
2021/12/11 03:01:55;;;;;;;31.00;20.65;;;-2.30;99.90;;;;;;4985956;28;20057;-45
2021/12/11 03:04:32;;;;;;;26.80;18.50;;;-2.20;99.90;;;;;;4993895;28;20469;-46
2021/12/11 03:07:01;;;;;;;28.02;18.25;;;-2.20;99.90;;;;;;4977363;28;20056;-48
2021/12/11 03:09:30;;;;;;;29.05;19.67;;;-2.20;99.90;;;;;;5011518;28;20037;-45
2021/12/11 03:11:59;;;;;;;26.30;19.42;;;-2.20;99.90;;;;;;5011341;28;20053;-45
2021/12/11 03:14:27;;;;;;;25.27;18.05;;;-2.20;99.90;;;;;;4993175;28;20140;-45
2021/12/11 03:16:55;;;;;;;24.98;18.15;;;-2.20;99.90;;;;;;4992419;28;20096;-49
2021/12/11 03:19:25;;;;;;;24.30;18.35;;;-2.20;99.90;;;;;;5008844;28;20094;-47
2021/12/11 03:21:53;;;;;;;24.23;17.48;;;-2.10;99.90;;;;;;4993414;28;20485;-58
2021/12/11 03:24:20;;;;;;;23.00;16.95;;;-2.20;99.90;;;;;;4993264;28;20531;-58
2021/12/11 03:26:50;;;;;;;24.85;16.75;;;-2.20;99.90;;;;;;5010615;28;20456;-58
2021/12/11 03:29:16;;;;;;;21.10;16.25;;;-2.20;99.90;;;;;;4976934;28;20505;-58
2021/12/11 03:31:43;;;;;;;20.80;15.90;;;-2.20;99.90;;;;;;4993076;28;20050;-58
2021/12/11 03:34:17;;;;;;;23.02;16.98;;;-2.30;99.90;;;;;;5010457;28;20077;-58
2021/12/11 03:36:44;;;;;;;22.10;17.15;;;-2.20;99.90;;;;;;4992659;28;20127;-48
2021/12/11 03:39:19;;;;;;;23.83;18.15;;;-2.30;99.90;;;;;;5010890;28;20062;-44
2021/12/11 03:41:48;;;;;;;23.55;17.65;;;-2.30;99.90;;;;;;5010790;28;20049;-45
2021/12/11 03:44:15;;;;;;;24.30;18.02;;;-2.30;99.90;;;;;;4993164;28;20077;-45
2021/12/11 03:46:44;;;;;;;27.38;19.25;;;-2.30;99.90;;;;;;4980503;28;20049;-48
2021/12/11 03:49:14;;;;;;;26.05;18.90;;;-2.30;99.90;;;;;;5010822;28;20590;-46
2021/12/11 03:51:44;;;;;;;27.95;18.75;;;-2.40;99.90;;;;;;4976838;28;20057;-45
2021/12/11 03:54:16;;;;;;;27.23;18.30;;;-2.30;99.90;;;;;;5010604;28;20080;-45
2021/12/11 03:56:42;;;;;;;26.02;17.45;;;-2.30;99.90;;;;;;5010856;28;20077;-44
2021/12/11 03:59:11;;;;;;;21.98;17.17;;;-2.30;99.90;;;;;;4992664;28;20129;-44
2021/12/11 04:02:01;;;;;;;22.67;16.20;;;-2.40;99.90;;;;;;5010240;28;20054;-44
2021/12/11 04:04:49;;;;;;;26.17;18.48;;;-2.30;99.90;;;;;;4964483;28;20054;-44
2021/12/11 04:07:20;;;;;;;23.05;17.33;;;-2.40;99.90;;;;;;5008485;28;20108;-45
2021/12/11 04:09:47;;;;;;;23.40;18.27;;;-2.40;99.90;;;;;;4975749;28;20108;-44
2021/12/11 04:12:14;;;;;;;28.10;19.92;;;-2.40;99.90;;;;;;4975513;28;20061;-45
2021/12/11 04:14:43;;;;;;;26.02;18.52;;;-2.40;99.90;;;;;;4992655;28;20398;-44
2021/12/11 04:17:12;;;;;;;27.55;19.30;;;-2.40;99.90;;;;;;4993065;28;20050;-46
2021/12/11 04:19:40;;;;;;;26.08;19.38;;;-2.30;99.90;;;;;;4992548;28;20057;-57
2021/12/11 04:22:07;;;;;;;28.38;19.98;;;-2.40;99.90;;;;;;5010450;28;20390;-58
2021/12/11 04:24:36;;;;;;;32.95;21.15;;;-2.40;99.90;;;;;;4992189;28;20054;-58
2021/12/11 04:27:05;;;;;;;33.00;20.20;;;-2.40;99.90;;;;;;5009471;28;20052;-58
2021/12/11 04:29:31;;;;;;;28.35;20.15;;;-2.30;99.90;;;;;;5009794;28;20050;-44
2021/12/11 04:32:01;;;;;;;34.80;23.75;;;-2.40;99.90;;;;;;4992351;28;20401;-58
2021/12/11 04:34:28;;;;;;;30.63;21.90;;;-2.30;99.90;;;;;;5024123;28;20054;-43
2021/12/11 04:37:03;;;;;;;30.98;22.60;;;-2.30;99.90;;;;;;4992296;28;20139;-45
2021/12/11 04:39:35;;;;;;;27.48;19.95;;;-2.40;99.90;;;;;;5009981;28;20049;-44
2021/12/11 04:42:12;;;;;;;31.90;21.25;;;-2.40;99.90;;;;;;4976156;28;20850;-44
2021/12/11 04:44:43;;;;;;;28.88;19.38;;;-2.40;99.90;;;;;;5010204;28;20161;-44
2021/12/11 04:47:27;;;;;;;25.95;19.25;;;-2.40;99.90;;;;;;5010098;28;20042;-45
2021/12/11 04:49:58;;;;;;;27.10;19.10;;;-2.40;99.90;;;;;;5009834;28;20096;-58
2021/12/11 04:52:44;;;;;;;32.28;20.55;;;-2.40;99.90;;;;;;5009396;28;20057;-57
2021/12/11 04:55:34;;;;;;;28.40;20.10;;;-2.40;99.90;;;;;;4992054;28;20061;-57
2021/12/11 04:58:24;;;;;;;31.20;22.58;;;-2.30;99.90;;;;;;5009498;28;20045;-44
2021/12/11 05:11:35;;;;;;;32.08;22.27;;;-2.30;99.90;;;;;;4989820;28;20069;-57
2021/12/11 05:14:03;;;;;;;31.30;21.67;;;-2.30;99.90;;;;;;5003675;28;20068;-57
2021/12/11 05:16:30;;;;;;;28.73;20.35;;;-2.40;99.90;;;;;;5008206;28;20056;-57
2021/12/11 05:18:56;;;;;;;32.42;21.05;;;-2.40;99.90;;;;;;4960146;28;20070;-57
2021/12/11 05:21:22;;;;;;;32.42;21.65;;;-2.30;99.90;;;;;;4988645;28;20061;-44
2021/12/11 05:23:51;;;;;;;25.08;19.70;;;-2.40;99.90;;;;;;4954563;28;20043;-44
2021/12/11 05:26:18;;;;;;;27.80;19.90;;;-2.30;99.90;;;;;;4975047;28;20506;-45
2021/12/11 05:28:45;;;;;;;34.38;22.48;;;-2.40;99.90;;;;;;4972035;28;20445;-57
2021/12/11 05:31:12;;;;;;;29.70;22.05;;;-2.40;99.90;;;;;;4955763;28;20113;-44
2021/12/11 05:33:38;;;;;;;30.17;21.00;;;-2.40;99.90;;;;;;4940228;28;20066;-47
2021/12/11 05:36:07;;;;;;;36.05;23.60;;;-2.40;99.90;;;;;;4972075;28;20050;-57
2021/12/11 05:38:35;;;;;;;38.13;27.00;;;-2.40;99.90;;;;;;4972236;28;20046;-57
2021/12/11 05:41:04;;;;;;;47.70;30.75;;;-2.30;99.90;;;;;;4971994;28;20050;-57
2021/12/11 05:43:32;;;;;;;60.33;35.58;;;-2.30;99.90;;;;;;4956040;28;20054;-57
2021/12/11 05:45:58;;;;;;;58.90;36.20;;;-2.10;99.90;;;;;;4972228;28;20410;-57
2021/12/11 05:48:25;;;;;;;54.35;32.88;;;-2.10;99.90;;;;;;4999775;28;20088;-57
2021/12/11 05:50:56;;;;;;;59.25;34.95;;;-2.10;99.90;;;;;;4975162;28;20129;-57
2021/12/11 05:53:23;;;;;;;50.37;33.67;;;-2.00;99.90;;;;;;4993614;28;20126;-57
2021/12/11 05:55:54;;;;;;;51.72;32.25;;;-2.00;99.90;;;;;;4972000;28;20380;-57
2021/12/11 06:01:39;;;;;;;47.65;30.63;;;-2.00;99.90;;;;;;4909748;29;20056;-57
2021/12/11 06:04:13;;;;;;;40.83;26.80;;;-2.00;99.90;;;;;;4982254;28;20149;-46
2021/12/11 06:06:40;;;;;;;44.30;28.67;;;-2.00;99.90;;;;;;4975574;28;20383;-44
2021/12/11 06:09:09;;;;;;;34.85;25.17;;;-2.10;99.90;;;;;;4959018;28;20053;-44
2021/12/11 06:11:36;;;;;;;38.05;26.17;;;-2.10;99.90;;;;;;4975476;28;20097;-43
2021/12/11 06:14:04;;;;;;;42.35;27.85;;;-2.20;99.90;;;;;;4957365;28;20064;-44
2021/12/11 06:16:30;;;;;;;35.20;25.38;;;-2.20;99.90;;;;;;4949198;28;20061;-43
2021/12/11 06:19:02;;;;;;;36.15;26.40;;;-2.20;99.90;;;;;;5003959;28;20077;-46
2021/12/11 06:21:30;;;;;;;38.28;26.73;;;-2.30;99.90;;;;;;4993115;28;20132;-57
2021/12/11 06:23:56;;;;;;;38.30;27.35;;;-2.30;99.90;;;;;;4959405;28;20564;-44
2021/12/11 06:26:23;;;;;;;36.20;25.95;;;-2.30;99.90;;;;;;4982172;28;20697;-44
2021/12/11 06:28:49;;;;;;;38.13;25.55;;;-2.20;99.90;;;;;;4994368;28;20046;-44
2021/12/11 06:31:18;;;;;;;41.83;28.10;;;-2.30;99.90;;;;;;4994288;28;20536;-44
2021/12/11 06:33:50;;;;;;;40.63;26.02;;;-2.30;99.90;;;;;;5012113;28;20057;-44
2021/12/11 06:36:19;;;;;;;36.40;26.63;;;-2.30;99.90;;;;;;4978354;28;20062;-44
2021/12/11 06:38:48;;;;;;;33.25;24.13;;;-2.40;99.90;;;;;;5011624;28;20060;-43
2021/12/11 06:41:18;;;;;;;38.10;24.17;;;-2.40;99.90;;;;;;4994270;28;20413;-44
2021/12/11 06:43:44;;;;;;;34.85;24.92;;;-2.40;99.90;;;;;;5020109;28;20060;-44
2021/12/11 06:46:11;;;;;;;34.92;24.25;;;-2.40;99.90;;;;;;5006776;28;20057;-45
2021/12/11 06:48:37;;;;;;;33.33;25.08;;;-2.50;99.90;;;;;;4978433;28;20071;-44
2021/12/11 06:51:05;;;;;;;36.80;24.17;;;-2.50;99.90;;;;;;4994130;28;20046;-44
2021/12/11 06:53:36;;;;;;;35.90;24.08;;;-2.50;99.90;;;;;;4983173;28;20117;-43
2021/12/11 06:56:05;;;;;;;43.60;27.45;;;-2.50;99.90;;;;;;4974406;28;20042;-43
2021/12/11 06:58:32;;;;;;;37.08;25.83;;;-2.50;99.90;;;;;;4974846;28;20552;-45
2021/12/11 07:00:58;;;;;;;42.58;27.55;;;-2.50;99.90;;;;;;4985792;28;20057;-45
2021/12/11 07:03:25;;;;;;;37.05;26.92;;;-2.50;99.90;;;;;;5009410;28;20049;-45
2021/12/11 07:05:52;;;;;;;36.35;26.13;;;-2.40;99.90;;;;;;4990781;28;20112;-43
2021/12/11 07:08:19;;;;;;;32.20;22.92;;;-2.50;99.90;;;;;;5006340;28;20053;-47
2021/12/11 07:10:46;;;;;;;32.10;23.27;;;-2.50;99.90;;;;;;4997482;28;20049;-44
2021/12/11 07:13:13;;;;;;;33.50;24.40;;;-2.60;99.90;;;;;;5009646;28;20046;-44
2021/12/11 07:15:40;;;;;;;33.72;24.30;;;-2.50;99.90;;;;;;4973410;28;20138;-44
2021/12/11 07:18:07;;;;;;;39.47;26.00;;;-2.60;99.90;;;;;;5000972;28;20406;-45
2021/12/11 07:20:33;;;;;;;39.15;24.73;;;-2.60;99.90;;;;;;4990837;28;20101;-45
2021/12/11 07:23:00;;;;;;;32.05;24.02;;;-2.60;99.90;;;;;;4965890;28;20047;-45
2021/12/11 07:26:00;;;;;;;31.50;23.38;;;-2.60;99.90;;;;;;4984086;28;20058;-46
2021/12/11 07:28:27;;;;;;;39.15;25.40;;;-2.60;99.90;;;;;;4971416;28;20053;-45
2021/12/11 07:30:56;;;;;;;33.40;24.02;;;-2.60;99.90;;;;;;4953723;28;20122;-47
2021/12/11 07:33:23;;;;;;;34.00;25.67;;;-2.60;99.90;;;;;;4938219;28;20046;-47
2021/12/11 07:35:51;;;;;;;37.80;24.50;;;-2.60;99.90;;;;;;4973099;28;20212;-46
2021/12/11 07:38:18;;;;;;;33.47;21.33;;;-2.60;99.90;;;;;;4991132;28;20143;-45
2021/12/11 07:40:49;;;;;;;33.00;22.67;;;-2.60;99.90;;;;;;4991195;28;20854;-45
2021/12/11 07:43:17;;;;;;;32.90;23.67;;;-2.60;99.90;;;;;;5010870;28;20046;-57
2021/12/11 07:45:43;;;;;;;36.33;24.40;;;-2.60;99.90;;;;;;5004045;28;20039;-56
2021/12/11 07:48:11;;;;;;;36.15;24.02;;;-2.60;99.90;;;;;;4953207;28;20678;-46
2021/12/11 07:50:38;;;;;;;41.85;25.10;;;-2.60;99.90;;;;;;4954785;28;20050;-48
2021/12/11 07:53:05;;;;;;;35.42;23.80;;;-2.60;99.90;;;;;;4960611;28;20046;-46
2021/12/11 07:55:32;;;;;;;32.53;23.95;;;-2.60;99.90;;;;;;4937974;28;20185;-45
2021/12/11 07:58:00;;;;;;;33.58;25.33;;;-2.50;99.90;;;;;;4985752;28;20058;-48
2021/12/11 08:00:27;;;;;;;37.13;24.63;;;-2.50;99.90;;;;;;4976062;28;20050;-46
2021/12/11 08:02:54;;;;;;;39.10;26.77;;;-2.50;99.90;;;;;;4972343;28;20050;-45
2021/12/11 08:05:21;;;;;;;32.80;24.65;;;-2.40;99.90;;;;;;4973151;28;20054;-45
2021/12/11 08:07:47;;;;;;;38.50;25.23;;;-2.40;99.90;;;;;;4988525;28;20074;-47
2021/12/11 08:10:19;;;;;;;35.78;24.35;;;-2.30;99.90;;;;;;4964406;28;20057;-47
2021/12/11 08:12:46;;;;;;;35.10;23.25;;;-2.30;99.90;;;;;;4965304;28;20057;-46
2021/12/11 08:15:13;;;;;;;34.97;24.83;;;-2.20;99.90;;;;;;4956775;28;20057;-46
2021/12/11 08:17:39;;;;;;;31.17;23.38;;;-2.20;99.90;;;;;;4978349;28;20046;-46
2021/12/11 08:20:08;;;;;;;35.97;24.67;;;-2.20;99.90;;;;;;4940621;28;20081;-46
2021/12/11 08:22:35;;;;;;;33.83;23.33;;;-2.00;99.90;;;;;;4970269;28;20057;-45
2021/12/11 08:25:01;;;;;;;33.22;23.80;;;-1.90;99.90;;;;;;4988263;28;20442;-47
2021/12/11 08:27:27;;;;;;;32.58;23.27;;;-1.80;99.90;;;;;;4972511;28;20083;-48
2021/12/11 08:29:54;;;;;;;31.15;22.83;;;-1.70;99.90;;;;;;4959701;28;20055;-45
2021/12/11 08:32:21;;;;;;;31.02;22.00;;;-1.50;99.90;;;;;;4976783;28;20050;-56
2021/12/11 08:34:49;;;;;;;29.63;21.42;;;-1.20;99.90;;;;;;4961512;28;20065;-57
2021/12/11 08:37:18;;;;;;;26.27;20.30;;;-0.90;99.90;;;;;;4976644;28;20493;-57
2021/12/11 08:39:46;;;;;;;25.25;20.15;;;-0.70;99.90;;;;;;4976495;28;20082;-57
2021/12/11 08:42:16;;;;;;;30.63;21.45;;;-0.50;99.90;;;;;;4962511;28;20038;-50
2021/12/11 08:44:50;;;;;;;28.23;20.77;;;-0.50;99.90;;;;;;4960474;28;20054;-47
2021/12/11 08:47:19;;;;;;;28.27;19.50;;;-0.30;99.90;;;;;;4969067;28;20042;-45
2021/12/11 08:49:45;;;;;;;27.55;21.17;;;-0.20;99.90;;;;;;4955823;28;20501;-57
2021/12/11 08:52:18;;;;;;;30.42;20.08;;;0.00;99.90;;;;;;4957266;28;20053;-46
2021/12/11 08:54:45;;;;;;;25.92;20.58;;;0.20;99.90;;;;;;4990243;28;20089;-58
2021/12/11 08:57:14;;;;;;;27.75;21.40;;;0.10;99.90;;;;;;4940737;28;20104;-58
2021/12/11 08:59:45;;;;;;;25.55;20.38;;;0.10;99.90;;;;;;4972549;28;20382;-58
2021/12/11 09:02:29;;;;;;;30.35;22.50;;;0.20;99.90;;;;;;4987230;28;20204;-56
2021/12/11 09:05:04;;;;;;;29.42;23.20;;;0.40;99.90;;;;;;4973839;28;20051;-58
2021/12/11 09:07:39;;;;;;;29.70;23.65;;;0.30;99.90;;;;;;4970866;28;20042;-58
2021/12/11 09:10:20;;;;;;;35.40;27.30;;;0.30;99.90;;;;;;4956637;28;20049;-49
2021/12/11 09:12:58;;;;;;;33.00;26.33;;;0.40;99.90;;;;;;4988616;28;20374;-59
2021/12/11 09:15:29;;;;;;;32.67;24.05;;;0.40;99.90;;;;;;4976441;28;20122;-47
2021/12/11 09:18:01;;;;;;;32.37;25.10;;;0.50;99.90;;;;;;4988082;28;20072;-50
2021/12/11 09:20:34;;;;;;;29.40;24.30;;;0.50;99.90;;;;;;4954772;28;20302;-48
2021/12/11 09:23:18;;;;;;;31.52;26.08;;;0.40;99.90;;;;;;4975984;28;20120;-49
2021/12/11 09:25:54;;;;;;;31.92;26.23;;;0.40;99.90;;;;;;4971056;28;20062;-58
2021/12/11 09:28:36;;;;;;;34.20;25.33;;;0.50;99.90;;;;;;4972297;28;20056;-58
2021/12/11 09:31:26;;;;;;;27.83;24.40;;;0.70;99.90;;;;;;4955919;28;20054;-58
2021/12/11 09:34:01;;;;;;;32.28;25.27;;;0.90;99.90;;;;;;4968522;28;20046;-45
2021/12/11 09:36:35;;;;;;;32.80;25.60;;;1.10;99.90;;;;;;4977048;28;20043;-59
2021/12/11 09:39:10;;;;;;;33.45;26.55;;;1.20;99.90;;;;;;4954490;28;20046;-45
2021/12/11 09:41:36;;;;;;;34.20;26.45;;;1.20;99.90;;;;;;4974734;28;20054;-59
2021/12/11 09:44:17;;;;;;;35.78;27.73;;;1.30;99.90;;;;;;4993052;28;20086;-56
2021/12/11 09:46:53;;;;;;;34.63;28.10;;;1.20;99.90;;;;;;4992911;28;20050;-56
2021/12/11 09:49:23;;;;;;;35.47;30.42;;;1.20;99.90;;;;;;4975102;28;20078;-56
2021/12/11 09:52:00;;;;;;;31.45;25.75;;;1.20;99.90;;;;;;4992815;28;20054;-56
2021/12/11 09:54:26;;;;;;;36.65;28.73;;;1.40;99.90;;;;;;4976090;28;20493;-56
2021/12/11 09:57:09;;;;;;;32.17;26.80;;;1.70;99.90;;;;;;4976077;28;20046;-56
2021/12/11 09:59:40;;;;;;;34.42;27.50;;;2.10;99.90;;;;;;4975728;28;20652;-56
2021/12/11 10:02:12;;;;;;;36.17;27.15;;;2.30;99.90;;;;;;4993481;28;20042;-56
2021/12/11 10:04:56;;;;;;;31.67;26.98;;;2.30;99.90;;;;;;4993027;28;20046;-56
2021/12/11 10:07:29;;;;;;;34.47;29.15;;;2.30;99.90;;;;;;4992862;28;20453;-57
2021/12/11 10:10:09;;;;;;;36.83;28.63;;;2.20;99.90;;;;;;4975468;28;20374;-57
2021/12/11 10:12:38;;;;;;;37.50;29.58;;;2.30;99.90;;;;;;4959148;28;20062;-57
2021/12/11 10:15:28;;;;;;;35.83;29.25;;;2.40;99.90;;;;;;4959291;28;20535;-57
2021/12/11 10:18:07;;;;;;;36.65;29.27;;;2.60;99.90;;;;;;4974266;28;20085;-57
2021/12/11 10:20:43;;;;;;;31.05;27.45;;;2.90;99.90;;;;;;4992674;28;20060;-57
2021/12/11 10:23:13;;;;;;;30.67;27.05;;;3.40;99.90;;;;;;4991926;28;20042;-59
2021/12/11 10:25:42;;;;;;;30.17;26.58;;;3.60;99.90;;;;;;4991860;28;20054;-58
2021/12/11 10:28:11;;;;;;;31.35;27.42;;;3.80;99.90;;;;;;4992827;28;20056;-57
2021/12/11 10:30:44;;;;;;;32.63;26.98;;;3.60;99.90;;;;;;4975471;28;20073;-57
2021/12/11 10:33:12;;;;;;;31.13;27.40;;;3.70;99.90;;;;;;4992391;28;20054;-58
2021/12/11 10:35:42;;;;;;;31.13;27.55;;;3.70;99.90;;;;;;4975034;28;20054;-45
2021/12/11 10:38:09;;;;;;;29.80;26.55;;;3.70;99.90;;;;;;4958414;28;20130;-47
2021/12/11 10:40:48;;;;;;;35.55;27.63;;;3.80;99.90;;;;;;4985837;28;20598;-46
2021/12/11 10:43:21;;;;;;;29.38;25.80;;;3.90;99.90;;;;;;4970177;28;20050;-50
2021/12/11 10:45:49;;;;;;;34.47;27.92;;;3.70;99.90;;;;;;4964939;28;20066;-48
2021/12/11 10:48:19;;;;;;;31.08;27.75;;;3.80;99.90;;;;;;4981063;28;20070;-54
2021/12/11 10:50:50;;;;;;;31.30;25.23;;;4.10;99.90;;;;;;4973527;28;20057;-46
2021/12/11 10:53:20;;;;;;;30.50;27.07;;;4.50;99.90;;;;;;4943275;28;20074;-47
2021/12/11 10:55:48;;;;;;;30.42;26.55;;;4.90;99.90;;;;;;4970114;28;20524;-49
2021/12/11 10:58:18;;;;;;;28.58;25.52;;;5.10;99.90;;;;;;4991401;28;20057;-47
2021/12/11 11:00:56;;;;;;;28.27;25.30;;;5.60;99.90;;;;;;4974855;28;20540;-49
2021/12/11 11:03:24;;;;;;;31.67;27.40;;;5.70;99.90;;;;;;4991835;28;20058;-48
2021/12/11 11:05:51;;;;;;;29.60;26.48;;;5.70;99.90;;;;;;4965048;28;20043;-52
2021/12/11 11:08:17;;;;;;;30.77;27.15;;;5.60;99.90;;;;;;4972096;28;20047;-52
2021/12/11 11:10:50;;;;;;;31.60;26.80;;;5.50;99.90;;;;;;4957257;28;20057;-51
2021/12/11 11:13:19;;;;;;;29.38;26.33;;;5.70;99.90;;;;;;4966591;28;20138;-50
2021/12/11 11:15:46;;;;;;;32.72;27.67;;;5.60;99.90;;;;;;4984862;28;20517;-51
2021/12/11 11:18:16;;;;;;;35.85;27.88;;;5.50;99.90;;;;;;4974580;28;20054;-61
2021/12/11 11:20:50;;;;;;;33.60;27.80;;;5.50;99.90;;;;;;4964641;28;20070;-61
2021/12/11 11:23:16;;;;;;;31.23;27.92;;;5.40;99.90;;;;;;4967787;28;20046;-49
2021/12/11 11:25:48;;;;;;;30.63;27.33;;;5.30;99.90;;;;;;4971876;28;20584;-49
2021/12/11 11:28:19;;;;;;;31.30;27.85;;;5.10;99.90;;;;;;4971841;28;20049;-62
2021/12/11 11:30:51;;;;;;;35.15;30.20;;;4.70;99.90;;;;;;4971918;28;20047;-61
2021/12/11 11:33:18;;;;;;;36.10;30.38;;;4.50;99.90;;;;;;4971434;28;20065;-61
2021/12/11 11:35:47;;;;;;;36.17;30.40;;;4.70;99.90;;;;;;4986753;28;20499;-52
2021/12/11 11:38:19;;;;;;;33.95;28.92;;;4.60;99.90;;;;;;4972739;28;20379;-52
2021/12/11 11:40:50;;;;;;;35.90;31.15;;;4.70;99.90;;;;;;4982452;28;20049;-50
2021/12/11 11:43:17;;;;;;;34.33;29.58;;;4.90;99.90;;;;;;4945983;28;20042;-47
2021/12/11 11:45:44;;;;;;;40.42;33.63;;;5.30;99.90;;;;;;4982631;28;20058;-47
2021/12/11 11:48:10;;;;;;;34.47;29.08;;;5.30;99.90;;;;;;4964911;28;20050;-61
2021/12/11 11:50:44;;;;;;;32.75;29.25;;;5.40;99.90;;;;;;4983302;28;20516;-60
2021/12/11 11:53:12;;;;;;;34.03;28.52;;;5.70;99.90;;;;;;4987211;28;20644;-61
2021/12/11 11:55:45;;;;;;;31.23;27.90;;;5.90;99.90;;;;;;4955974;28;20045;-61
2021/12/11 11:58:11;;;;;;;31.88;28.38;;;6.40;99.90;;;;;;4990815;28;20193;-61
2021/12/11 12:00:46;;;;;;;30.60;27.27;;;6.50;99.90;;;;;;4989834;28;20054;-61
2021/12/11 12:03:15;;;;;;;31.75;28.02;;;6.50;99.90;;;;;;4970983;28;20818;-61
2021/12/11 12:05:44;;;;;;;31.13;27.23;;;6.90;99.90;;;;;;4972740;28;20511;-48
2021/12/11 12:08:11;;;;;;;29.83;26.55;;;7.00;99.90;;;;;;4990860;28;20057;-48
2021/12/11 12:10:38;;;;;;;33.53;26.52;;;7.60;99.90;;;;;;4988737;28;20046;-49
2021/12/11 12:13:07;;;;;;;31.63;26.08;;;8.30;99.90;;;;;;4956680;28;20081;-45
2021/12/11 12:15:42;;;;;;;30.02;26.58;;;8.10;99.90;;;;;;4972716;28;20089;-48
2021/12/11 12:18:10;;;;;;;32.33;27.05;;;8.50;99.90;;;;;;4959044;28;20073;-46
2021/12/11 12:20:40;;;;;;;31.55;25.55;;;8.50;99.90;;;;;;4973553;28;20058;-61
2021/12/11 12:23:09;;;;;;;30.00;25.52;;;8.00;99.90;;;;;;4972725;28;20054;-61
2021/12/11 12:25:37;;;;;;;28.55;25.33;;;7.80;99.90;;;;;;4990112;28;20533;-62
2021/12/11 12:28:03;;;;;;;30.08;26.58;;;7.40;99.90;;;;;;4981133;28;20087;-51
2021/12/11 12:30:45;;;;;;;28.92;25.83;;;7.20;99.90;;;;;;4982871;28;20044;-47
2021/12/11 12:33:13;;;;;;;30.58;27.23;;;6.80;99.90;;;;;;4985054;28;20090;-52
2021/12/11 12:35:40;;;;;;;33.58;28.00;;;6.40;99.90;;;;;;4971506;28;20050;-46
2021/12/11 12:38:10;;;;;;;30.92;26.52;;;6.00;99.90;;;;;;4956065;28;20058;-47
2021/12/11 12:40:49;;;;;;;34.00;27.50;;;5.70;99.90;;;;;;4979017;28;20075;-45
2021/12/11 12:43:42;;;;;;;32.33;27.23;;;5.90;99.90;;;;;;4971459;28;20062;-62
2021/12/11 12:46:07;;;;;;;82.57;61.22;;;6.10;99.90;;;;;;4959262;28;20058;-61
2021/12/11 12:48:33;;;;;;;31.33;25.92;;;6.50;99.90;;;;;;4961770;28;20146;-62
2021/12/11 12:51:03;;;;;;;33.20;25.52;;;7.00;99.90;;;;;;4975433;28;20089;-47
2021/12/11 12:53:33;;;;;;;30.23;24.13;;;7.40;99.90;;;;;;4972732;28;20059;-47
2021/12/11 12:56:12;;;;;;;30.33;23.23;;;7.80;99.90;;;;;;4944169;28;20082;-50
2021/12/11 12:59:01;;;;;;;30.40;21.90;;;8.00;99.90;;;;;;4981908;28;20082;-47
2021/12/11 13:01:36;;;;;;;27.75;21.35;;;8.50;99.90;;;;;;4971812;28;20532;-47
2021/12/11 13:04:05;;;;;;;24.92;20.75;;;8.80;99.90;;;;;;4986074;28;20046;-46
2021/12/11 13:06:46;;;;;;;28.80;22.77;;;9.10;99.90;;;;;;4978186;28;20074;-47
2021/12/11 13:09:21;;;;;;;25.38;22.27;;;8.60;99.90;;;;;;4969819;28;20058;-49